sensor_id;sensor_type;location;lat;lon;timestamp;P1;durP1;ratioP1;P2;durP2;ratioP2
10442;SDS011;5269;51.146;16.986;2022-11-20T00:03:26;25.87;;;12.77;;
10442;SDS011;5269;51.146;16.986;2022-11-20T00:05:54;24.97;;;12.83;;
10442;SDS011;5269;51.146;16.986;2022-11-20T00:08:26;24.37;;;13.67;;
10442;SDS011;5269;51.146;16.986;2022-11-20T00:10:53;24.43;;;13.10;;
10442;SDS011;5269;51.146;16.986;2022-11-20T00:13:19;23.93;;;12.67;;
10442;SDS011;5269;51.146;16.986;2022-11-20T00:15:46;22.57;;;11.93;;
10442;SDS011;5269;51.146;16.986;2022-11-20T00:18:13;21.47;;;12.70;;
10442;SDS011;5269;51.146;16.986;2022-11-20T00:20:40;22.33;;;11.97;;
10442;SDS011;5269;51.146;16.986;2022-11-20T00:23:09;22.87;;;12.67;;
10442;SDS011;5269;51.146;16.986;2022-11-20T00:25:35;19.40;;;11.20;;
10442;SDS011;5269;51.146;16.986;2022-11-20T00:28:03;21.67;;;12.30;;
10442;SDS011;5269;51.146;16.986;2022-11-20T00:30:30;19.50;;;11.13;;
10442;SDS011;5269;51.146;16.986;2022-11-20T00:32:57;20.37;;;12.37;;
10442;SDS011;5269;51.146;16.986;2022-11-20T00:35:25;20.53;;;11.57;;
10442;SDS011;5269;51.146;16.986;2022-11-20T00:37:52;21.13;;;11.97;;
10442;SDS011;5269;51.146;16.986;2022-11-20T00:40:21;21.40;;;12.60;;
10442;SDS011;5269;51.146;16.986;2022-11-20T00:42:47;19.67;;;11.90;;
10442;SDS011;5269;51.146;16.986;2022-11-20T00:45:14;20.10;;;12.13;;
10442;SDS011;5269;51.146;16.986;2022-11-20T00:47:41;20.70;;;11.87;;
10442;SDS011;5269;51.146;16.986;2022-11-20T00:50:08;19.17;;;11.27;;
10442;SDS011;5269;51.146;16.986;2022-11-20T00:52:35;18.27;;;11.03;;
10442;SDS011;5269;51.146;16.986;2022-11-20T00:55:02;22.30;;;12.40;;
10442;SDS011;5269;51.146;16.986;2022-11-20T00:57:31;19.23;;;12.10;;
10442;SDS011;5269;51.146;16.986;2022-11-20T00:59:58;21.53;;;12.07;;
10442;SDS011;5269;51.146;16.986;2022-11-20T01:02:25;19.33;;;11.50;;
10442;SDS011;5269;51.146;16.986;2022-11-20T01:04:52;22.20;;;11.70;;
10442;SDS011;5269;51.146;16.986;2022-11-20T01:07:19;24.50;;;11.90;;
10442;SDS011;5269;51.146;16.986;2022-11-20T01:09:46;21.60;;;11.90;;
10442;SDS011;5269;51.146;16.986;2022-11-20T01:12:13;23.17;;;12.00;;
10442;SDS011;5269;51.146;16.986;2022-11-20T01:14:41;21.70;;;12.73;;
10442;SDS011;5269;51.146;16.986;2022-11-20T01:17:08;22.10;;;11.53;;
10442;SDS011;5269;51.146;16.986;2022-11-20T01:19:35;19.87;;;11.30;;
10442;SDS011;5269;51.146;16.986;2022-11-20T01:22:02;19.33;;;11.23;;
10442;SDS011;5269;51.146;16.986;2022-11-20T01:24:29;20.20;;;10.80;;
10442;SDS011;5269;51.146;16.986;2022-11-20T01:26:55;20.53;;;10.63;;
10442;SDS011;5269;51.146;16.986;2022-11-20T01:29:23;16.17;;;10.93;;
10442;SDS011;5269;51.146;16.986;2022-11-20T01:31:52;20.77;;;11.47;;
10442;SDS011;5269;51.146;16.986;2022-11-20T01:34:19;19.57;;;11.70;;
10442;SDS011;5269;51.146;16.986;2022-11-20T01:36:47;21.73;;;11.20;;
10442;SDS011;5269;51.146;16.986;2022-11-20T01:39:15;20.73;;;11.63;;
10442;SDS011;5269;51.146;16.986;2022-11-20T01:41:44;22.17;;;11.80;;
10442;SDS011;5269;51.146;16.986;2022-11-20T01:44:49;21.50;;;11.40;;
10442;SDS011;5269;51.146;16.986;2022-11-20T01:47:21;20.30;;;10.63;;
10442;SDS011;5269;51.146;16.986;2022-11-20T01:49:54;23.93;;;11.37;;
10442;SDS011;5269;51.146;16.986;2022-11-20T01:52:26;19.27;;;10.90;;
10442;SDS011;5269;51.146;16.986;2022-11-20T01:54:58;19.33;;;11.43;;
10442;SDS011;5269;51.146;16.986;2022-11-20T01:57:27;24.97;;;12.33;;
10442;SDS011;5269;51.146;16.986;2022-11-20T01:59:59;20.10;;;11.50;;
10442;SDS011;5269;51.146;16.986;2022-11-20T02:02:30;25.90;;;12.83;;
10442;SDS011;5269;51.146;16.986;2022-11-20T02:05:00;21.10;;;11.70;;
10442;SDS011;5269;51.146;16.986;2022-11-20T02:07:30;25.27;;;13.10;;
10442;SDS011;5269;51.146;16.986;2022-11-20T02:09:59;21.33;;;11.30;;
10442;SDS011;5269;51.146;16.986;2022-11-20T02:12:26;20.27;;;11.70;;
10442;SDS011;5269;51.146;16.986;2022-11-20T02:15:11;22.37;;;10.80;;
10442;SDS011;5269;51.146;16.986;2022-11-20T02:17:39;20.63;;;11.40;;
10442;SDS011;5269;51.146;16.986;2022-11-20T02:20:07;19.73;;;11.87;;
10442;SDS011;5269;51.146;16.986;2022-11-20T02:22:35;22.60;;;12.30;;
10442;SDS011;5269;51.146;16.986;2022-11-20T02:25:10;19.33;;;10.70;;
10442;SDS011;5269;51.146;16.986;2022-11-20T02:27:38;21.83;;;11.80;;
10442;SDS011;5269;51.146;16.986;2022-11-20T02:30:05;23.70;;;11.77;;
10442;SDS011;5269;51.146;16.986;2022-11-20T02:32:34;24.00;;;12.37;;
10442;SDS011;5269;51.146;16.986;2022-11-20T02:35:06;26.43;;;12.10;;
10442;SDS011;5269;51.146;16.986;2022-11-20T02:37:34;20.63;;;10.87;;
10442;SDS011;5269;51.146;16.986;2022-11-20T02:40:05;23.33;;;12.20;;
10442;SDS011;5269;51.146;16.986;2022-11-20T02:42:34;23.30;;;12.03;;
10442;SDS011;5269;51.146;16.986;2022-11-20T02:45:02;21.80;;;12.00;;
10442;SDS011;5269;51.146;16.986;2022-11-20T02:47:29;20.87;;;12.00;;
10442;SDS011;5269;51.146;16.986;2022-11-20T02:49:57;23.77;;;11.87;;
10442;SDS011;5269;51.146;16.986;2022-11-20T02:52:24;22.00;;;11.50;;
10442;SDS011;5269;51.146;16.986;2022-11-20T02:54:51;22.37;;;11.27;;
10442;SDS011;5269;51.146;16.986;2022-11-20T02:57:18;20.57;;;11.20;;
10442;SDS011;5269;51.146;16.986;2022-11-20T02:59:46;27.07;;;13.27;;
10442;SDS011;5269;51.146;16.986;2022-11-20T03:02:13;22.63;;;11.83;;
10442;SDS011;5269;51.146;16.986;2022-11-20T03:04:40;23.67;;;11.97;;
10442;SDS011;5269;51.146;16.986;2022-11-20T03:07:07;22.13;;;11.07;;
10442;SDS011;5269;51.146;16.986;2022-11-20T03:09:34;17.90;;;10.80;;
10442;SDS011;5269;51.146;16.986;2022-11-20T03:12:01;23.43;;;10.90;;
10442;SDS011;5269;51.146;16.986;2022-11-20T03:14:28;20.00;;;11.13;;
10442;SDS011;5269;51.146;16.986;2022-11-20T03:16:57;19.93;;;11.57;;
10442;SDS011;5269;51.146;16.986;2022-11-20T03:19:24;20.03;;;11.10;;
10442;SDS011;5269;51.146;16.986;2022-11-20T03:21:51;19.57;;;10.37;;
10442;SDS011;5269;51.146;16.986;2022-11-20T03:24:18;17.53;;;10.50;;
10442;SDS011;5269;51.146;16.986;2022-11-20T03:26:45;17.93;;;10.97;;
10442;SDS011;5269;51.146;16.986;2022-11-20T03:29:12;19.43;;;10.83;;
10442;SDS011;5269;51.146;16.986;2022-11-20T03:31:39;23.13;;;11.30;;
10442;SDS011;5269;51.146;16.986;2022-11-20T03:34:08;22.43;;;11.33;;
10442;SDS011;5269;51.146;16.986;2022-11-20T03:36:37;20.93;;;11.60;;
10442;SDS011;5269;51.146;16.986;2022-11-20T03:39:04;17.33;;;10.73;;
10442;SDS011;5269;51.146;16.986;2022-11-20T03:41:35;19.80;;;11.27;;
10442;SDS011;5269;51.146;16.986;2022-11-20T03:44:03;19.13;;;10.13;;
10442;SDS011;5269;51.146;16.986;2022-11-20T03:46:32;18.63;;;10.43;;
10442;SDS011;5269;51.146;16.986;2022-11-20T03:48:59;18.03;;;10.07;;
10442;SDS011;5269;51.146;16.986;2022-11-20T03:51:29;18.87;;;9.93;;
10442;SDS011;5269;51.146;16.986;2022-11-20T03:53:58;17.80;;;10.00;;
10442;SDS011;5269;51.146;16.986;2022-11-20T03:56:26;20.27;;;11.10;;
10442;SDS011;5269;51.146;16.986;2022-11-20T03:58:55;18.30;;;10.27;;
10442;SDS011;5269;51.146;16.986;2022-11-20T04:01:23;20.83;;;10.40;;
10442;SDS011;5269;51.146;16.986;2022-11-20T04:03:52;20.97;;;11.00;;
10442;SDS011;5269;51.146;16.986;2022-11-20T04:06:21;20.20;;;10.77;;
10442;SDS011;5269;51.146;16.986;2022-11-20T04:08:51;19.07;;;10.30;;
10442;SDS011;5269;51.146;16.986;2022-11-20T04:11:20;17.00;;;9.87;;
10442;SDS011;5269;51.146;16.986;2022-11-20T04:13:48;16.33;;;9.90;;
10442;SDS011;5269;51.146;16.986;2022-11-20T04:16:16;20.13;;;10.03;;
10442;SDS011;5269;51.146;16.986;2022-11-20T04:18:44;18.13;;;9.90;;
10442;SDS011;5269;51.146;16.986;2022-11-20T04:21:11;18.47;;;10.40;;
10442;SDS011;5269;51.146;16.986;2022-11-20T04:23:38;21.53;;;10.40;;
10442;SDS011;5269;51.146;16.986;2022-11-20T04:26:07;19.17;;;10.43;;
10442;SDS011;5269;51.146;16.986;2022-11-20T04:28:35;21.27;;;11.27;;
10442;SDS011;5269;51.146;16.986;2022-11-20T04:31:04;18.97;;;10.80;;
10442;SDS011;5269;51.146;16.986;2022-11-20T04:33:32;22.00;;;10.93;;
10442;SDS011;5269;51.146;16.986;2022-11-20T04:36:00;18.43;;;10.03;;
10442;SDS011;5269;51.146;16.986;2022-11-20T04:38:31;21.13;;;11.30;;
10442;SDS011;5269;51.146;16.986;2022-11-20T04:40:58;21.73;;;11.23;;
10442;SDS011;5269;51.146;16.986;2022-11-20T04:43:27;24.93;;;12.77;;
10442;SDS011;5269;51.146;16.986;2022-11-20T04:45:55;22.50;;;11.73;;
10442;SDS011;5269;51.146;16.986;2022-11-20T04:48:23;27.20;;;13.70;;
10442;SDS011;5269;51.146;16.986;2022-11-20T04:50:50;25.50;;;12.93;;
10442;SDS011;5269;51.146;16.986;2022-11-20T04:53:19;27.00;;;13.80;;
10442;SDS011;5269;51.146;16.986;2022-11-20T04:55:47;27.73;;;12.77;;
10442;SDS011;5269;51.146;16.986;2022-11-20T04:58:14;26.47;;;13.67;;
10442;SDS011;5269;51.146;16.986;2022-11-20T05:00:43;23.63;;;12.97;;
10442;SDS011;5269;51.146;16.986;2022-11-20T05:03:09;24.17;;;12.77;;
10442;SDS011;5269;51.146;16.986;2022-11-20T05:05:36;24.63;;;13.67;;
10442;SDS011;5269;51.146;16.986;2022-11-20T05:08:03;26.03;;;13.00;;
10442;SDS011;5269;51.146;16.986;2022-11-20T05:10:30;26.00;;;13.07;;
10442;SDS011;5269;51.146;16.986;2022-11-20T05:12:57;24.00;;;12.37;;
10442;SDS011;5269;51.146;16.986;2022-11-20T05:15:24;23.90;;;13.00;;
10442;SDS011;5269;51.146;16.986;2022-11-20T05:17:53;23.90;;;12.33;;
10442;SDS011;5269;51.146;16.986;2022-11-20T05:20:20;26.33;;;12.97;;
10442;SDS011;5269;51.146;16.986;2022-11-20T05:22:47;24.33;;;12.17;;
10442;SDS011;5269;51.146;16.986;2022-11-20T05:25:14;24.53;;;12.83;;
10442;SDS011;5269;51.146;16.986;2022-11-20T05:27:41;24.60;;;14.00;;
10442;SDS011;5269;51.146;16.986;2022-11-20T05:30:08;26.63;;;13.67;;
10442;SDS011;5269;51.146;16.986;2022-11-20T05:32:36;24.20;;;12.50;;
10442;SDS011;5269;51.146;16.986;2022-11-20T05:35:06;20.20;;;12.47;;
10442;SDS011;5269;51.146;16.986;2022-11-20T05:37:33;22.10;;;12.03;;
10442;SDS011;5269;51.146;16.986;2022-11-20T05:40:00;24.13;;;13.30;;
10442;SDS011;5269;51.146;16.986;2022-11-20T05:42:29;21.87;;;12.70;;
10442;SDS011;5269;51.146;16.986;2022-11-20T05:44:57;26.50;;;13.73;;
10442;SDS011;5269;51.146;16.986;2022-11-20T05:47:24;26.00;;;13.83;;
10442;SDS011;5269;51.146;16.986;2022-11-20T05:49:51;23.77;;;12.67;;
10442;SDS011;5269;51.146;16.986;2022-11-20T05:52:20;22.30;;;12.40;;
10442;SDS011;5269;51.146;16.986;2022-11-20T05:54:47;26.00;;;13.67;;
10442;SDS011;5269;51.146;16.986;2022-11-20T05:57:14;21.13;;;12.33;;
10442;SDS011;5269;51.146;16.986;2022-11-20T05:59:41;25.73;;;12.87;;
10442;SDS011;5269;51.146;16.986;2022-11-20T06:02:08;20.33;;;12.83;;
10442;SDS011;5269;51.146;16.986;2022-11-20T06:04:35;20.60;;;12.13;;
10442;SDS011;5269;51.146;16.986;2022-11-20T06:07:02;21.70;;;12.57;;
10442;SDS011;5269;51.146;16.986;2022-11-20T06:09:32;24.70;;;12.47;;
10442;SDS011;5269;51.146;16.986;2022-11-20T06:11:59;23.10;;;11.77;;
10442;SDS011;5269;51.146;16.986;2022-11-20T06:14:26;24.70;;;13.20;;
10442;SDS011;5269;51.146;16.986;2022-11-20T06:16:56;22.83;;;12.67;;
10442;SDS011;5269;51.146;16.986;2022-11-20T06:19:23;20.37;;;11.43;;
10442;SDS011;5269;51.146;16.986;2022-11-20T06:21:50;22.20;;;12.07;;
10442;SDS011;5269;51.146;16.986;2022-11-20T06:24:17;22.80;;;12.83;;
10442;SDS011;5269;51.146;16.986;2022-11-20T06:26:46;27.50;;;13.77;;
10442;SDS011;5269;51.146;16.986;2022-11-20T06:29:15;25.50;;;13.27;;
10442;SDS011;5269;51.146;16.986;2022-11-20T06:31:42;27.77;;;14.00;;
10442;SDS011;5269;51.146;16.986;2022-11-20T06:34:09;26.83;;;13.77;;
10442;SDS011;5269;51.146;16.986;2022-11-20T06:36:37;261.20;;;93.67;;
10442;SDS011;5269;51.146;16.986;2022-11-20T06:39:06;397.30;;;140.70;;
10442;SDS011;5269;51.146;16.986;2022-11-20T06:41:42;238.90;;;113.00;;
10442;SDS011;5269;51.146;16.986;2022-11-20T06:47:03;39.43;;;22.07;;
10442;SDS011;5269;51.146;16.986;2022-11-20T06:49:51;46.07;;;23.03;;
10442;SDS011;5269;51.146;16.986;2022-11-20T06:52:18;44.40;;;25.60;;
10442;SDS011;5269;51.146;16.986;2022-11-20T06:54:45;31.17;;;17.97;;
10442;SDS011;5269;51.146;16.986;2022-11-20T06:57:12;33.03;;;15.87;;
10442;SDS011;5269;51.146;16.986;2022-11-20T06:59:39;26.97;;;14.67;;
10442;SDS011;5269;51.146;16.986;2022-11-20T07:02:11;27.13;;;14.53;;
10442;SDS011;5269;51.146;16.986;2022-11-20T07:05:00;27.57;;;14.17;;
10442;SDS011;5269;51.146;16.986;2022-11-20T07:07:29;27.60;;;14.33;;
10442;SDS011;5269;51.146;16.986;2022-11-20T07:10:02;28.00;;;14.47;;
10442;SDS011;5269;51.146;16.986;2022-11-20T07:12:38;30.03;;;15.23;;
10442;SDS011;5269;51.146;16.986;2022-11-20T07:15:14;26.50;;;15.43;;
10442;SDS011;5269;51.146;16.986;2022-11-20T07:17:51;30.00;;;14.80;;
10442;SDS011;5269;51.146;16.986;2022-11-20T07:20:19;28.80;;;15.07;;
10442;SDS011;5269;51.146;16.986;2022-11-20T07:22:54;28.50;;;15.20;;
10442;SDS011;5269;51.146;16.986;2022-11-20T07:25:33;28.63;;;16.20;;
10442;SDS011;5269;51.146;16.986;2022-11-20T07:28:03;28.00;;;14.80;;
10442;SDS011;5269;51.146;16.986;2022-11-20T07:30:41;30.17;;;15.30;;
10442;SDS011;5269;51.146;16.986;2022-11-20T07:33:22;26.43;;;15.13;;
10442;SDS011;5269;51.146;16.986;2022-11-20T07:35:49;25.87;;;13.97;;
10442;SDS011;5269;51.146;16.986;2022-11-20T07:38:54;28.57;;;15.63;;
10442;SDS011;5269;51.146;16.986;2022-11-20T07:44:08;32.43;;;17.80;;
10442;SDS011;5269;51.146;16.986;2022-11-20T07:46:35;31.27;;;16.90;;
10442;SDS011;5269;51.146;16.986;2022-11-20T07:49:10;33.70;;;16.77;;
10442;SDS011;5269;51.146;16.986;2022-11-20T07:51:38;28.37;;;15.70;;
10442;SDS011;5269;51.146;16.986;2022-11-20T07:54:07;27.57;;;16.00;;
10442;SDS011;5269;51.146;16.986;2022-11-20T07:56:43;28.80;;;16.37;;
10442;SDS011;5269;51.146;16.986;2022-11-20T07:59:23;29.50;;;15.63;;
10442;SDS011;5269;51.146;16.986;2022-11-20T08:01:50;31.73;;;16.53;;
10442;SDS011;5269;51.146;16.986;2022-11-20T08:04:21;31.07;;;16.37;;
10442;SDS011;5269;51.146;16.986;2022-11-20T08:06:51;34.27;;;16.40;;
10442;SDS011;5269;51.146;16.986;2022-11-20T08:09:27;31.50;;;17.03;;
10442;SDS011;5269;51.146;16.986;2022-11-20T08:11:57;29.90;;;17.57;;
10442;SDS011;5269;51.146;16.986;2022-11-20T08:14:42;31.43;;;17.77;;
10442;SDS011;5269;51.146;16.986;2022-11-20T08:17:09;30.40;;;17.63;;
10442;SDS011;5269;51.146;16.986;2022-11-20T08:19:37;30.53;;;17.97;;
10442;SDS011;5269;51.146;16.986;2022-11-20T08:22:04;28.43;;;16.63;;
10442;SDS011;5269;51.146;16.986;2022-11-20T08:24:31;29.73;;;16.40;;
10442;SDS011;5269;51.146;16.986;2022-11-20T08:26:58;28.07;;;15.30;;
10442;SDS011;5269;51.146;16.986;2022-11-20T08:29:25;24.87;;;14.90;;
10442;SDS011;5269;51.146;16.986;2022-11-20T08:31:53;30.33;;;15.53;;
10442;SDS011;5269;51.146;16.986;2022-11-20T08:34:20;26.07;;;14.97;;
10442;SDS011;5269;51.146;16.986;2022-11-20T08:36:49;25.13;;;13.50;;
10442;SDS011;5269;51.146;16.986;2022-11-20T08:39:16;20.33;;;12.30;;
10442;SDS011;5269;51.146;16.986;2022-11-20T08:41:43;24.20;;;12.83;;
10442;SDS011;5269;51.146;16.986;2022-11-20T08:44:10;25.50;;;13.57;;
10442;SDS011;5269;51.146;16.986;2022-11-20T08:46:38;21.93;;;12.93;;
10442;SDS011;5269;51.146;16.986;2022-11-20T08:49:06;20.27;;;11.37;;
10442;SDS011;5269;51.146;16.986;2022-11-20T08:51:35;19.67;;;11.73;;
10442;SDS011;5269;51.146;16.986;2022-11-20T08:54:04;19.80;;;12.40;;
10442;SDS011;5269;51.146;16.986;2022-11-20T08:59:06;20.47;;;11.73;;
10442;SDS011;5269;51.146;16.986;2022-11-20T09:01:33;18.10;;;11.37;;
10442;SDS011;5269;51.146;16.986;2022-11-20T09:04:01;19.73;;;11.07;;
10442;SDS011;5269;51.146;16.986;2022-11-20T09:06:29;20.03;;;11.53;;
10442;SDS011;5269;51.146;16.986;2022-11-20T09:08:56;16.80;;;10.90;;
10442;SDS011;5269;51.146;16.986;2022-11-20T09:11:27;18.17;;;10.23;;
10442;SDS011;5269;51.146;16.986;2022-11-20T09:13:59;17.60;;;11.00;;
10442;SDS011;5269;51.146;16.986;2022-11-20T09:16:30;20.37;;;11.00;;
10442;SDS011;5269;51.146;16.986;2022-11-20T09:18:59;19.90;;;11.30;;
10442;SDS011;5269;51.146;16.986;2022-11-20T09:21:26;16.20;;;10.40;;
10442;SDS011;5269;51.146;16.986;2022-11-20T09:23:56;20.20;;;11.23;;
10442;SDS011;5269;51.146;16.986;2022-11-20T09:26:27;18.43;;;10.87;;
10442;SDS011;5269;51.146;16.986;2022-11-20T09:28:54;18.43;;;11.20;;
10442;SDS011;5269;51.146;16.986;2022-11-20T09:31:32;17.80;;;10.97;;
10442;SDS011;5269;51.146;16.986;2022-11-20T09:37:23;16.57;;;10.83;;
10442;SDS011;5269;51.146;16.986;2022-11-20T09:40:00;21.70;;;11.50;;
10442;SDS011;5269;51.146;16.986;2022-11-20T09:42:31;19.07;;;10.50;;
10442;SDS011;5269;51.146;16.986;2022-11-20T09:45:09;16.20;;;10.37;;
10442;SDS011;5269;51.146;16.986;2022-11-20T09:47:52;19.13;;;10.57;;
10442;SDS011;5269;51.146;16.986;2022-11-20T09:50:47;18.97;;;10.17;;
10442;SDS011;5269;51.146;16.986;2022-11-20T09:53:29;17.27;;;10.60;;
10442;SDS011;5269;51.146;16.986;2022-11-20T09:56:03;17.97;;;10.17;;
10442;SDS011;5269;51.146;16.986;2022-11-20T09:58:40;15.23;;;10.37;;
10442;SDS011;5269;51.146;16.986;2022-11-20T10:01:11;15.43;;;10.70;;
10442;SDS011;5269;51.146;16.986;2022-11-20T10:03:44;18.00;;;10.30;;
10442;SDS011;5269;51.146;16.986;2022-11-20T10:06:21;18.00;;;10.47;;
10442;SDS011;5269;51.146;16.986;2022-11-20T10:09:05;18.03;;;10.57;;
10442;SDS011;5269;51.146;16.986;2022-11-20T10:12:05;18.00;;;10.57;;
10442;SDS011;5269;51.146;16.986;2022-11-20T10:15:03;15.97;;;9.70;;
10442;SDS011;5269;51.146;16.986;2022-11-20T10:18:03;18.47;;;10.57;;
10442;SDS011;5269;51.146;16.986;2022-11-20T10:21:14;16.50;;;9.97;;
10442;SDS011;5269;51.146;16.986;2022-11-20T10:24:01;16.07;;;10.07;;
10442;SDS011;5269;51.146;16.986;2022-11-20T10:37:24;14.90;;;9.60;;
10442;SDS011;5269;51.146;16.986;2022-11-20T10:40:18;15.60;;;9.87;;
10442;SDS011;5269;51.146;16.986;2022-11-20T10:42:50;14.50;;;10.00;;
10442;SDS011;5269;51.146;16.986;2022-11-20T10:45:33;18.07;;;10.23;;
10442;SDS011;5269;51.146;16.986;2022-11-20T10:51:31;18.53;;;10.40;;
10442;SDS011;5269;51.146;16.986;2022-11-20T10:54:09;15.10;;;9.30;;
10442;SDS011;5269;51.146;16.986;2022-11-20T10:57:02;16.07;;;9.43;;
10442;SDS011;5269;51.146;16.986;2022-11-20T10:59:54;15.80;;;9.17;;
10442;SDS011;5269;51.146;16.986;2022-11-20T11:02:51;15.57;;;9.60;;
10442;SDS011;5269;51.146;16.986;2022-11-20T11:05:22;17.83;;;10.33;;
10442;SDS011;5269;51.146;16.986;2022-11-20T11:11:14;14.17;;;9.33;;
10442;SDS011;5269;51.146;16.986;2022-11-20T11:21:48;15.90;;;9.10;;
10442;SDS011;5269;51.146;16.986;2022-11-20T11:24:20;13.90;;;9.07;;
10442;SDS011;5269;51.146;16.986;2022-11-20T11:26:57;13.27;;;8.53;;
10442;SDS011;5269;51.146;16.986;2022-11-20T11:29:29;13.33;;;8.60;;
10442;SDS011;5269;51.146;16.986;2022-11-20T11:32:06;12.10;;;8.27;;
10442;SDS011;5269;51.146;16.986;2022-11-20T11:34:57;16.10;;;8.70;;
10442;SDS011;5269;51.146;16.986;2022-11-20T11:43:16;13.23;;;8.30;;
10442;SDS011;5269;51.146;16.986;2022-11-20T11:46:14;13.53;;;8.20;;
10442;SDS011;5269;51.146;16.986;2022-11-20T11:49:00;12.50;;;8.33;;
10442;SDS011;5269;51.146;16.986;2022-11-20T11:51:39;15.47;;;8.07;;
10442;SDS011;5269;51.146;16.986;2022-11-20T11:54:17;10.70;;;7.33;;
10442;SDS011;5269;51.146;16.986;2022-11-20T11:56:47;13.57;;;7.87;;
10442;SDS011;5269;51.146;16.986;2022-11-20T11:59:18;11.93;;;7.80;;
10442;SDS011;5269;51.146;16.986;2022-11-20T12:01:51;13.03;;;7.63;;
10442;SDS011;5269;51.146;16.986;2022-11-20T12:05:01;12.73;;;8.73;;
10442;SDS011;5269;51.146;16.986;2022-11-20T12:10:44;13.07;;;8.00;;
10442;SDS011;5269;51.146;16.986;2022-11-20T12:13:40;10.53;;;7.57;;
10442;SDS011;5269;51.146;16.986;2022-11-20T12:16:22;13.63;;;7.27;;
10442;SDS011;5269;51.146;16.986;2022-11-20T12:19:07;12.20;;;7.23;;
10442;SDS011;5269;51.146;16.986;2022-11-20T12:21:40;15.17;;;8.83;;
10442;SDS011;5269;51.146;16.986;2022-11-20T12:27:02;10.97;;;7.70;;
10442;SDS011;5269;51.146;16.986;2022-11-20T12:29:51;13.53;;;7.40;;
10442;SDS011;5269;51.146;16.986;2022-11-20T13:24:22;11.83;;;7.97;;
10442;SDS011;5269;51.146;16.986;2022-11-20T13:27:17;12.47;;;8.00;;
10442;SDS011;5269;51.146;16.986;2022-11-20T13:29:46;10.57;;;7.23;;
10442;SDS011;5269;51.146;16.986;2022-11-20T13:32:25;11.13;;;7.10;;
10442;SDS011;5269;51.146;16.986;2022-11-20T13:34:58;13.00;;;7.70;;
10442;SDS011;5269;51.146;16.986;2022-11-20T13:37:28;11.30;;;7.20;;
10442;SDS011;5269;51.146;16.986;2022-11-20T13:40:25;12.30;;;8.17;;
10442;SDS011;5269;51.146;16.986;2022-11-20T13:43:42;13.20;;;8.50;;
10442;SDS011;5269;51.146;16.986;2022-11-20T13:46:23;10.97;;;7.20;;
10442;SDS011;5269;51.146;16.986;2022-11-20T13:49:20;12.63;;;7.63;;
10442;SDS011;5269;51.146;16.986;2022-11-20T14:11:21;10.97;;;7.47;;
10442;SDS011;5269;51.146;16.986;2022-11-20T14:15:03;11.33;;;6.80;;
10442;SDS011;5269;51.146;16.986;2022-11-20T14:21:04;11.63;;;8.03;;
10442;SDS011;5269;51.146;16.986;2022-11-20T14:23:40;12.90;;;7.40;;
10442;SDS011;5269;51.146;16.986;2022-11-20T14:26:11;10.60;;;7.30;;
10442;SDS011;5269;51.146;16.986;2022-11-20T14:29:00;10.57;;;6.93;;
10442;SDS011;5269;51.146;16.986;2022-11-20T14:31:30;12.33;;;7.10;;
10442;SDS011;5269;51.146;16.986;2022-11-20T14:37:35;12.30;;;7.20;;
10442;SDS011;5269;51.146;16.986;2022-11-20T14:40:24;10.97;;;6.70;;
10442;SDS011;5269;51.146;16.986;2022-11-20T14:43:04;12.60;;;6.73;;
10442;SDS011;5269;51.146;16.986;2022-11-20T14:45:52;9.73;;;6.97;;
10442;SDS011;5269;51.146;16.986;2022-11-20T14:48:31;11.47;;;7.50;;
10442;SDS011;5269;51.146;16.986;2022-11-20T14:54:11;10.63;;;7.47;;
10442;SDS011;5269;51.146;16.986;2022-11-20T15:00:20;9.60;;;6.53;;
10442;SDS011;5269;51.146;16.986;2022-11-20T15:06:56;9.60;;;6.77;;
10442;SDS011;5269;51.146;16.986;2022-11-20T15:09:31;13.77;;;7.03;;
10442;SDS011;5269;51.146;16.986;2022-11-20T15:12:04;10.03;;;6.70;;
10442;SDS011;5269;51.146;16.986;2022-11-20T15:15:04;11.03;;;6.57;;
10442;SDS011;5269;51.146;16.986;2022-11-20T15:21:00;10.57;;;6.63;;
10442;SDS011;5269;51.146;16.986;2022-11-20T15:27:02;11.37;;;7.20;;
10442;SDS011;5269;51.146;16.986;2022-11-20T15:33:29;12.80;;;7.60;;
10442;SDS011;5269;51.146;16.986;2022-11-20T15:39:33;13.63;;;6.90;;
10442;SDS011;5269;51.146;16.986;2022-11-20T15:45:23;13.87;;;7.53;;
10442;SDS011;5269;51.146;16.986;2022-11-20T15:51:16;13.37;;;8.13;;
10442;SDS011;5269;51.146;16.986;2022-11-20T15:57:31;14.00;;;8.10;;
10442;SDS011;5269;51.146;16.986;2022-11-20T16:00:13;14.03;;;8.57;;
10442;SDS011;5269;51.146;16.986;2022-11-20T16:06:20;15.70;;;9.30;;
10442;SDS011;5269;51.146;16.986;2022-11-20T16:09:11;15.23;;;7.90;;
10442;SDS011;5269;51.146;16.986;2022-11-20T16:15:17;11.73;;;8.37;;
10442;SDS011;5269;51.146;16.986;2022-11-20T16:21:34;16.40;;;8.83;;
10442;SDS011;5269;51.146;16.986;2022-11-20T16:27:42;15.73;;;10.00;;
10442;SDS011;5269;51.146;16.986;2022-11-20T16:30:23;19.27;;;10.60;;
10442;SDS011;5269;51.146;16.986;2022-11-20T16:36:28;23.53;;;12.47;;
10442;SDS011;5269;51.146;16.986;2022-11-20T16:45:32;22.67;;;11.73;;
10442;SDS011;5269;51.146;16.986;2022-11-20T16:48:13;26.37;;;13.63;;
10442;SDS011;5269;51.146;16.986;2022-11-20T16:51:04;22.63;;;11.10;;
10442;SDS011;5269;51.146;16.986;2022-11-20T16:53:44;18.57;;;11.17;;
10442;SDS011;5269;51.146;16.986;2022-11-20T16:56:22;20.63;;;12.20;;
10442;SDS011;5269;51.146;16.986;2022-11-20T16:59:01;19.43;;;11.43;;
10442;SDS011;5269;51.146;16.986;2022-11-20T17:01:41;18.93;;;11.23;;
10442;SDS011;5269;51.146;16.986;2022-11-20T17:04:11;23.17;;;12.53;;
10442;SDS011;5269;51.146;16.986;2022-11-20T17:06:42;22.20;;;11.70;;
10442;SDS011;5269;51.146;16.986;2022-11-20T17:09:29;18.50;;;11.17;;
10442;SDS011;5269;51.146;16.986;2022-11-20T17:11:57;21.10;;;11.93;;
10442;SDS011;5269;51.146;16.986;2022-11-20T17:14:24;19.00;;;12.07;;
10442;SDS011;5269;51.146;16.986;2022-11-20T17:17:01;21.73;;;11.93;;
10442;SDS011;5269;51.146;16.986;2022-11-20T17:19:29;19.17;;;11.17;;
10442;SDS011;5269;51.146;16.986;2022-11-20T17:21:57;23.77;;;12.73;;
10442;SDS011;5269;51.146;16.986;2022-11-20T17:24:31;24.77;;;14.30;;
10442;SDS011;5269;51.146;16.986;2022-11-20T17:27:00;25.13;;;13.60;;
10442;SDS011;5269;51.146;16.986;2022-11-20T17:29:27;26.00;;;15.33;;
10442;SDS011;5269;51.146;16.986;2022-11-20T17:32:13;28.13;;;16.17;;
10442;SDS011;5269;51.146;16.986;2022-11-20T17:34:52;28.53;;;15.37;;
10442;SDS011;5269;51.146;16.986;2022-11-20T17:37:22;25.30;;;14.73;;
10442;SDS011;5269;51.146;16.986;2022-11-20T17:43:00;25.33;;;14.30;;
10442;SDS011;5269;51.146;16.986;2022-11-20T17:45:33;24.37;;;13.83;;
10442;SDS011;5269;51.146;16.986;2022-11-20T17:48:08;23.10;;;14.23;;
10442;SDS011;5269;51.146;16.986;2022-11-20T17:50:35;27.73;;;15.43;;
10442;SDS011;5269;51.146;16.986;2022-11-20T17:53:08;24.33;;;14.73;;
10442;SDS011;5269;51.146;16.986;2022-11-20T17:55:40;28.23;;;14.43;;
10442;SDS011;5269;51.146;16.986;2022-11-20T17:58:27;25.30;;;14.80;;
10442;SDS011;5269;51.146;16.986;2022-11-20T18:01:10;29.13;;;15.80;;
10442;SDS011;5269;51.146;16.986;2022-11-20T18:03:38;25.70;;;15.13;;
10442;SDS011;5269;51.146;16.986;2022-11-20T18:06:09;26.33;;;14.83;;
10442;SDS011;5269;51.146;16.986;2022-11-20T18:08:38;24.43;;;13.87;;